Time;durP1;ratioP1;P1;durP2;ratioP2;P2;SDS_P1;SDS_P2;PMS_P1;PMS_P2;Temp;Humidity;BMP_temperature;BMP_pressure;BME280_temperature;BME280_humidity;BME280_pressure;Samples;Min_cycle;Max_cycle;Signal;HPM_P1;HPM_P2
2023/04/01 00:00:57;;;;;;;1.90;1.70;;;9.80;99.90;;;;;;5033316;28;20487;-72
2023/04/01 00:03:24;;;;;;;3.00;1.67;;;9.80;99.90;;;;;;5034144;28;20415;-72
2023/04/01 00:05:50;;;;;;;2.13;1.93;;;9.80;99.90;;;;;;5034221;28;20545;-72
2023/04/01 00:08:16;;;;;;;5.27;1.90;;;9.80;99.90;;;;;;5034400;28;20827;-73
2023/04/01 00:10:41;;;;;;;2.47;1.80;;;9.80;99.90;;;;;;5032107;28;20476;-72
2023/04/01 00:13:07;;;;;;;2.33;2.13;;;9.80;99.90;;;;;;5032795;28;20509;-73
2023/04/01 00:15:32;;;;;;;4.63;2.03;;;9.70;99.90;;;;;;5034668;28;20312;-73
2023/04/01 00:17:58;;;;;;;1.60;1.50;;;9.70;99.90;;;;;;5034450;28;20182;-73
2023/04/01 00:20:24;;;;;;;2.30;1.83;;;9.70;99.90;;;;;;5022984;28;20314;-74
2023/04/01 00:22:50;;;;;;;2.30;1.80;;;9.70;99.90;;;;;;5033173;28;20418;-73
2023/04/01 00:25:16;;;;;;;1.60;1.50;;;9.70;99.90;;;;;;5035161;28;20211;-72
2023/04/01 00:27:41;;;;;;;2.63;1.97;;;9.70;99.90;;;;;;5037719;28;20191;-72
2023/04/01 00:30:08;;;;;;;2.27;2.07;;;9.60;99.90;;;;;;5043283;28;20182;-73
2023/04/01 00:32:35;;;;;;;3.77;1.93;;;9.60;99.90;;;;;;5033562;28;20541;-73
2023/04/01 00:35:01;;;;;;;1.50;1.40;;;9.60;99.90;;;;;;5033526;28;20484;-73
2023/04/01 00:37:27;;;;;;;2.30;1.53;;;9.70;99.90;;;;;;5033451;28;20510;-76
2023/04/01 00:39:53;;;;;;;2.20;1.80;;;9.70;99.90;;;;;;5030115;28;20443;-73
2023/04/01 00:42:19;;;;;;;2.67;1.70;;;9.70;99.90;;;;;;5033131;28;20414;-73
2023/04/01 00:44:51;;;;;;;7.93;2.40;;;9.70;99.90;;;;;;5033351;28;20465;-73
2023/04/01 00:47:18;;;;;;;3.33;1.63;;;9.70;99.90;;;;;;5033170;28;20172;-73
2023/04/01 00:49:47;;;;;;;2.83;2.20;;;9.70;99.90;;;;;;5033385;28;20448;-72
2023/04/01 00:52:17;;;;;;;5.93;1.70;;;9.70;99.90;;;;;;5031995;28;20450;-73
2023/04/01 00:54:45;;;;;;;1.90;1.40;;;9.70;99.90;;;;;;5031966;28;20972;-74
2023/04/01 00:57:40;;;;;;;3.23;1.87;;;9.70;99.90;;;;;;5031839;28;20418;-72
2023/04/01 01:00:10;;;;;;;2.30;1.90;;;9.70;99.90;;;;;;5031406;28;20513;-74
2023/04/01 01:02:36;;;;;;;3.50;1.93;;;9.80;99.90;;;;;;5031690;28;20418;-73
2023/04/01 01:05:02;;;;;;;1.80;1.70;;;9.80;99.90;;;;;;5031667;28;20508;-72
2023/04/01 01:07:40;;;;;;;2.77;1.70;;;9.80;99.90;;;;;;5032021;28;20495;-72
2023/04/01 01:10:38;;;;;;;3.30;2.67;;;9.80;99.90;;;;;;5030828;28;20484;-73
2023/04/01 01:13:41;;;;;;;2.60;1.90;;;9.70;99.90;;;;;;5023755;28;20733;-73
2023/04/01 01:16:18;;;;;;;3.13;2.77;;;9.80;99.90;;;;;;5010502;28;20515;-72
2023/04/01 01:18:47;;;;;;;4.83;2.67;;;9.70;99.90;;;;;;5032070;28;20813;-72
2023/04/01 01:21:45;;;;;;;5.30;3.10;;;9.70;99.90;;;;;;5030442;28;20434;-73
2023/04/01 01:24:22;;;;;;;7.90;3.83;;;9.70;99.90;;;;;;5026042;28;20425;-73
2023/04/01 01:27:13;;;;;;;9.50;4.70;;;9.80;99.90;;;;;;5027161;28;20406;-73
2023/04/01 01:29:45;;;;;;;6.00;3.80;;;9.80;99.90;;;;;;5028153;28;20398;-73
2023/04/01 01:32:39;;;;;;;4.70;4.20;;;9.80;99.90;;;;;;5031441;28;20438;-74
2023/04/01 01:35:14;;;;;;;7.80;4.60;;;9.80;99.90;;;;;;5029990;28;20436;-73
2023/04/01 01:37:41;;;;;;;9.20;4.33;;;9.80;99.90;;;;;;5031869;28;20428;-73
2023/04/01 01:40:11;;;;;;;5.90;3.90;;;9.80;99.90;;;;;;5030184;28;20411;-72
2023/04/01 01:42:40;;;;;;;4.77;2.70;;;9.80;99.90;;;;;;5031757;28;20474;-72
2023/04/01 01:45:08;;;;;;;3.37;2.37;;;9.70;99.90;;;;;;5030070;28;20964;-72
2023/04/01 01:47:35;;;;;;;3.63;3.10;;;9.70;99.90;;;;;;5031191;28;20920;-72
2023/04/01 01:50:03;;;;;;;3.20;2.90;;;9.70;99.90;;;;;;5026577;28;1145950;-72
2023/04/01 01:52:29;;;;;;;4.80;2.97;;;9.70;99.90;;;;;;5036735;28;20433;-72
2023/04/01 01:54:57;;;;;;;4.43;3.93;;;9.80;99.90;;;;;;5036044;28;20493;-73
2023/04/01 01:57:34;;;;;;;4.37;3.10;;;9.80;99.90;;;;;;5031805;28;20417;-74
2023/04/01 02:00:12;;;;;;;5.13;2.90;;;9.80;99.90;;;;;;5031583;28;20434;-72
2023/04/01 02:02:43;;;;;;;3.87;3.47;;;9.80;99.90;;;;;;5024305;28;20492;-72
2023/04/01 02:05:15;;;;;;;3.50;3.20;;;9.80;99.90;;;;;;5030097;28;21028;-74
2023/04/01 02:07:45;;;;;;;5.77;4.07;;;9.80;99.90;;;;;;5026099;28;20501;-72
2023/04/01 02:10:11;;;;;;;5.87;3.13;;;9.80;99.90;;;;;;5031357;28;20947;-72
2023/04/01 02:12:38;;;;;;;2.03;1.80;;;9.80;99.90;;;;;;5031855;28;20407;-73
2023/04/01 02:15:09;;;;;;;4.10;2.47;;;9.70;99.90;;;;;;5031545;28;20237;-73
2023/04/01 02:17:40;;;;;;;2.60;2.13;;;9.70;99.90;;;;;;5031509;28;20430;-74
2023/04/01 02:20:19;;;;;;;2.03;1.93;;;9.60;99.90;;;;;;5031570;28;20418;-73
2023/04/01 02:22:51;;;;;;;3.83;2.80;;;9.70;99.90;;;;;;5030933;28;20425;-73
2023/04/01 02:25:24;;;;;;;6.60;3.90;;;9.70;99.90;;;;;;5031124;28;20465;-73
2023/04/01 02:27:51;;;;;;;3.50;3.03;;;9.70;99.90;;;;;;5031510;28;20414;-72
2023/04/01 02:30:18;;;;;;;6.30;3.60;;;9.80;99.90;;;;;;5030999;28;20799;-72
2023/04/01 02:32:44;;;;;;;4.37;3.47;;;9.70;99.90;;;;;;5031175;28;20417;-73
2023/04/01 02:35:13;;;;;;;4.70;2.67;;;9.80;99.90;;;;;;5030943;28;20461;-72
2023/04/01 02:37:42;;;;;;;4.60;3.23;;;9.70;99.90;;;;;;5031576;28;20892;-73
2023/04/01 02:40:11;;;;;;;7.80;2.70;;;9.70;99.90;;;;;;5031252;28;20421;-72
2023/04/01 02:42:36;;;;;;;3.30;2.53;;;9.70;99.90;;;;;;5025957;28;20970;-77
2023/04/01 02:45:03;;;;;;;4.80;3.00;;;9.70;99.90;;;;;;5031321;28;20607;-73
2023/04/01 02:47:29;;;;;;;3.90;2.50;;;9.80;99.90;;;;;;5032085;28;20182;-74
2023/04/01 02:49:58;;;;;;;4.53;3.40;;;9.80;99.90;;;;;;5031186;28;20409;-74
2023/04/01 02:52:29;;;;;;;6.93;3.03;;;9.80;99.90;;;;;;5031289;28;20937;-73
2023/04/01 02:54:55;;;;;;;6.23;2.73;;;9.70;99.90;;;;;;5031224;28;20407;-72
2023/04/01 02:57:21;;;;;;;3.43;3.10;;;9.70;99.90;;;;;;5029424;28;20422;-73
2023/04/01 02:59:47;;;;;;;3.63;2.83;;;9.70;99.90;;;;;;5031311;28;20424;-73
2023/04/01 03:02:13;;;;;;;3.03;2.83;;;9.60;99.90;;;;;;5031059;28;20445;-74
2023/04/01 03:04:39;;;;;;;3.37;3.07;;;9.70;99.90;;;;;;5027142;28;20575;-75
2023/04/01 03:07:05;;;;;;;2.43;2.23;;;9.70;99.90;;;;;;5030968;28;20429;-73
2023/04/01 03:09:31;;;;;;;3.40;2.50;;;9.60;99.90;;;;;;5030068;28;20175;-73
2023/04/01 03:11:56;;;;;;;3.20;2.90;;;9.60;99.90;;;;;;5031264;28;20442;-73
2023/04/01 03:14:22;;;;;;;4.70;2.57;;;9.70;99.90;;;;;;5031023;28;20178;-73
2023/04/01 03:16:48;;;;;;;2.97;2.70;;;9.70;99.90;;;;;;5031990;28;20209;-73
2023/04/01 03:19:13;;;;;;;5.57;2.80;;;9.70;99.90;;;;;;5029482;28;20183;-74
2023/04/01 03:21:39;;;;;;;2.80;2.60;;;9.70;99.90;;;;;;5031936;28;20191;-71
2023/04/01 03:24:06;;;;;;;2.83;2.27;;;9.70;99.90;;;;;;5031063;28;20178;-72
2023/04/01 03:26:32;;;;;;;4.70;2.57;;;9.70;99.90;;;;;;5030682;28;20282;-73
2023/04/01 03:28:57;;;;;;;8.43;3.33;;;9.70;99.90;;;;;;5031062;28;20447;-73
2023/04/01 03:31:23;;;;;;;3.40;2.33;;;9.70;99.90;;;;;;5031833;28;20462;-71
2023/04/01 03:33:49;;;;;;;4.93;2.40;;;9.70;99.90;;;;;;5033767;28;20183;-72
2023/04/01 03:36:15;;;;;;;2.70;2.50;;;9.80;99.90;;;;;;5034233;28;20179;-72
2023/04/01 03:38:42;;;;;;;2.00;1.80;;;9.80;99.90;;;;;;5034160;28;20295;-75
2023/04/01 03:41:11;;;;;;;7.83;2.80;;;9.70;99.90;;;;;;5034647;28;20855;-75
2023/04/01 03:43:36;;;;;;;7.23;3.27;;;9.70;99.90;;;;;;5034724;28;20428;-74
2023/04/01 03:46:02;;;;;;;2.53;2.23;;;9.80;99.90;;;;;;5035080;28;20819;-76
2023/04/01 03:48:27;;;;;;;4.53;2.00;;;9.70;99.90;;;;;;5034608;28;20524;-74
2023/04/01 03:50:53;;;;;;;2.50;1.67;;;9.80;99.90;;;;;;5035010;28;20294;-75
2023/04/01 03:53:19;;;;;;;2.40;2.07;;;9.80;99.90;;;;;;5034510;28;20262;-73
2023/04/01 03:55:45;;;;;;;4.97;2.30;;;9.80;99.90;;;;;;5034852;28;20179;-74
2023/04/01 03:58:11;;;;;;;2.87;2.40;;;9.70;99.90;;;;;;5035178;28;20476;-73
2023/04/01 04:00:36;;;;;;;2.83;2.33;;;9.80;99.90;;;;;;5034290;28;20658;-76
2023/04/01 04:03:02;;;;;;;3.33;2.60;;;9.80;99.90;;;;;;5032923;28;20263;-73
2023/04/01 04:05:28;;;;;;;2.87;2.60;;;9.90;99.90;;;;;;5033962;28;20261;-74
2023/04/01 04:07:54;;;;;;;6.30;2.33;;;9.90;99.90;;;;;;5033995;28;20414;-75
2023/04/01 04:10:20;;;;;;;4.40;1.97;;;9.90;99.90;;;;;;5033852;28;20183;-73
2023/04/01 04:12:46;;;;;;;2.90;2.47;;;9.90;99.90;;;;;;5033890;28;20460;-74
2023/04/01 04:15:12;;;;;;;3.00;2.27;;;9.80;99.90;;;;;;5033948;28;20433;-74
2023/04/01 04:17:37;;;;;;;9.97;2.60;;;9.80;99.90;;;;;;5034497;28;20179;-74
2023/04/01 04:20:04;;;;;;;3.40;2.93;;;9.80;99.90;;;;;;5033904;28;20422;-74
2023/04/01 04:22:29;;;;;;;3.40;2.60;;;9.80;99.90;;;;;;5034108;28;20172;-73
2023/04/01 04:24:55;;;;;;;3.57;2.17;;;9.80;99.90;;;;;;5033714;28;20528;-74
2023/04/01 04:27:21;;;;;;;4.63;2.57;;;9.80;99.90;;;;;;5033939;28;20504;-76
2023/04/01 04:29:46;;;;;;;6.30;2.50;;;9.80;99.90;;;;;;5033913;28;20186;-76
2023/04/01 04:32:12;;;;;;;5.60;2.70;;;9.80;99.90;;;;;;5033956;28;20663;-74
2023/04/01 04:34:37;;;;;;;4.33;2.50;;;9.80;99.90;;;;;;5033654;28;20653;-73
2023/04/01 04:37:03;;;;;;;3.50;2.13;;;9.70;99.90;;;;;;5033820;28;20179;-74
2023/04/01 04:39:29;;;;;;;5.63;3.00;;;9.70;99.90;;;;;;5033949;28;20183;-74
2023/04/01 04:41:55;;;;;;;4.70;2.30;;;9.70;99.90;;;;;;5033563;28;20214;-73
2023/04/01 04:44:21;;;;;;;4.13;2.70;;;9.70;99.90;;;;;;5031876;28;20461;-73
2023/04/01 04:46:46;;;;;;;2.60;2.40;;;9.70;99.90;;;;;;5033139;28;20557;-76
2023/04/01 04:49:12;;;;;;;3.00;2.50;;;9.80;99.90;;;;;;5033085;28;20302;-73
2023/04/01 04:51:38;;;;;;;5.40;4.20;;;9.80;99.90;;;;;;5056123;22;20230;-67
2023/04/01 04:54:04;;;;;;;6.03;3.00;;;9.80;99.90;;;;;;5054430;28;20438;-68
2023/04/01 04:56:31;;;;;;;3.13;2.40;;;9.80;99.90;;;;;;5052711;28;20552;-68
2023/04/01 04:58:57;;;;;;;3.87;3.00;;;9.80;99.90;;;;;;5054761;28;20405;-67
2023/04/01 05:01:23;;;;;;;4.00;2.63;;;9.70;99.90;;;;;;5054239;28;20452;-67
2023/04/01 05:03:49;;;;;;;5.10;3.27;;;9.70;99.90;;;;;;5054809;28;20417;-67
2023/04/01 05:06:16;;;;;;;6.33;3.40;;;9.70;99.90;;;;;;5053826;28;20452;-67
2023/04/01 05:08:44;;;;;;;3.73;2.80;;;9.70;99.90;;;;;;5056100;28;20867;-67
2023/04/01 05:11:14;;;;;;;3.70;3.37;;;9.70;99.90;;;;;;5042666;28;20912;-68
2023/04/01 05:13:40;;;;;;;4.23;3.57;;;9.70;99.90;;;;;;5055668;28;20474;-68
2023/04/01 05:16:15;;;;;;;9.07;4.47;;;9.80;99.90;;;;;;5055685;28;20500;-69
2023/04/01 05:18:41;;;;;;;5.33;3.60;;;9.70;99.90;;;;;;5048770;28;20405;-69
2023/04/01 05:21:09;;;;;;;4.43;3.23;;;9.80;99.90;;;;;;5053633;28;20448;-68
2023/04/01 05:23:35;;;;;;;3.90;3.50;;;9.80;99.90;;;;;;5053749;28;20178;-67
2023/04/01 05:26:09;;;;;;;3.20;2.70;;;9.80;99.90;;;;;;5053918;28;20562;-67
2023/04/01 05:28:35;;;;;;;3.27;2.87;;;9.90;99.90;;;;;;5053525;28;20424;-68
2023/04/01 05:31:02;;;;;;;5.33;2.80;;;9.90;99.90;;;;;;5053945;28;20425;-68
2023/04/01 05:33:27;;;;;;;3.53;2.80;;;9.80;99.90;;;;;;5053998;28;20257;-67
2023/04/01 05:35:54;;;;;;;3.70;2.77;;;9.80;99.90;;;;;;5054766;28;20445;-66
2023/04/01 05:38:20;;;;;;;5.60;3.53;;;9.80;99.90;;;;;;5053542;28;20581;-67
2023/04/01 05:40:46;;;;;;;4.03;3.00;;;9.80;99.90;;;;;;5053393;28;20441;-69
2023/04/01 05:43:11;;;;;;;5.77;2.73;;;9.80;99.90;;;;;;5053106;28;20409;-68
2023/04/01 05:45:37;;;;;;;2.90;2.40;;;9.80;99.90;;;;;;5050133;28;20753;-67
2023/04/01 05:48:03;;;;;;;3.03;2.40;;;9.80;99.90;;;;;;5050459;28;20205;-67
2023/04/01 05:50:28;;;;;;;3.47;2.53;;;9.80;99.90;;;;;;5051761;28;20202;-67
2023/04/01 05:52:54;;;;;;;5.63;3.00;;;9.90;99.90;;;;;;5050551;28;20421;-68
2023/04/01 05:55:20;;;;;;;7.23;3.47;;;9.90;99.90;;;;;;5053870;28;20190;-67
2023/04/01 05:57:48;;;;;;;5.90;3.90;;;9.90;99.90;;;;;;5054527;28;20210;-68
2023/04/01 06:00:14;;;;;;;7.83;3.40;;;10.00;99.90;;;;;;5054419;28;20183;-69
2023/04/01 06:02:41;;;;;;;3.97;3.20;;;10.00;99.90;;;;;;5053093;28;20947;-68
2023/04/01 06:05:25;;;;;;;6.90;4.00;;;10.00;99.90;;;;;;5054256;28;20444;-68
2023/04/01 06:07:58;;;;;;;5.00;3.03;;;10.00;99.90;;;;;;5053918;28;20430;-68
2023/04/01 06:10:49;;;;;;;9.37;3.80;;;9.90;99.90;;;;;;5047027;28;20405;-68
2023/04/01 06:13:58;;;;;;;3.90;3.50;;;10.00;99.90;;;;;;5053830;28;20390;-67
2023/04/01 06:16:27;;;;;;;5.37;2.97;;;10.00;99.90;;;;;;5052006;28;20610;-67
2023/04/01 06:19:18;;;;;;;3.87;2.90;;;10.10;99.90;;;;;;5051891;28;20417;-67
2023/04/01 06:22:14;;;;;;;5.43;3.87;;;10.00;99.90;;;;;;5049716;28;20809;-68
2023/04/01 06:24:59;;;;;;;7.23;3.20;;;9.90;99.90;;;;;;5048309;28;20483;-68
2023/04/01 06:27:46;;;;;;;6.33;3.30;;;9.90;99.90;;;;;;5043209;28;20449;-67
2023/04/01 06:30:39;;;;;;;4.10;2.70;;;10.00;99.90;;;;;;5052416;28;20889;-68
2023/04/01 06:33:23;;;;;;;5.07;3.50;;;10.00;99.90;;;;;;5055614;28;20412;-70
2023/04/01 06:36:05;;;;;;;3.90;3.23;;;10.00;99.90;;;;;;5059948;28;20429;-69
2023/04/01 06:38:52;;;;;;;3.90;2.70;;;10.00;99.90;;;;;;5060029;28;20410;-68
2023/04/01 06:41:36;;;;;;;5.70;3.47;;;10.00;99.90;;;;;;5058531;28;20429;-68
2023/04/01 06:44:35;;;;;;;4.10;3.07;;;10.10;99.90;;;;;;5051761;28;20412;-69
2023/04/01 06:47:16;;;;;;;4.17;3.00;;;10.10;99.90;;;;;;5043188;28;20495;-69
2023/04/01 06:49:52;;;;;;;4.07;3.17;;;10.10;99.90;;;;;;5053770;28;20507;-68
2023/04/01 06:52:30;;;;;;;6.40;5.50;;;10.10;99.90;;;;;;5052389;28;20502;-69
2023/04/01 06:55:24;;;;;;;5.87;4.67;;;10.00;99.90;;;;;;5050666;28;20496;-68
2023/04/01 06:57:55;;;;;;;4.13;3.70;;;10.00;99.90;;;;;;5050716;28;20810;-68
2023/04/01 07:00:36;;;;;;;7.87;5.30;;;10.10;99.90;;;;;;5054200;28;20412;-68
2023/04/01 07:03:21;;;;;;;8.37;6.63;;;10.00;99.90;;;;;;5052893;28;20483;-68
2023/04/01 07:05:47;;;;;;;8.30;5.87;;;10.10;99.90;;;;;;5054374;28;20453;-68
2023/04/01 07:08:20;;;;;;;9.83;6.73;;;10.10;99.90;;;;;;5055217;28;20412;-68
2023/04/01 07:10:56;;;;;;;4.83;4.40;;;10.20;99.90;;;;;;5057211;28;20425;-68
2023/04/01 07:13:34;;;;;;;7.77;4.33;;;10.10;99.90;;;;;;5057304;28;20480;-68
2023/04/01 07:16:15;;;;;;;3.80;3.43;;;10.20;99.90;;;;;;5056633;28;20405;-67
2023/04/01 07:19:02;;;;;;;5.03;4.03;;;10.20;99.90;;;;;;5057307;28;20401;-69
2023/04/01 07:21:48;;;;;;;11.00;4.20;;;10.20;99.90;;;;;;5049895;28;20421;-67
2023/04/01 07:24:21;;;;;;;6.17;4.33;;;10.10;99.90;;;;;;5057962;28;20412;-69
2023/04/01 07:26:54;;;;;;;4.90;4.40;;;10.20;99.90;;;;;;5056443;28;20536;-68
2023/04/01 07:29:20;;;;;;;5.20;3.53;;;10.30;99.90;;;;;;5056984;28;20423;-68
2023/04/01 07:31:57;;;;;;;5.83;3.93;;;10.30;99.90;;;;;;5056657;28;20467;-68
2023/04/01 07:34:27;;;;;;;3.80;3.30;;;10.30;99.90;;;;;;5048237;28;20175;-67
2023/04/01 07:37:31;;;;;;;4.43;3.57;;;10.40;99.90;;;;;;5056806;28;20492;-69
2023/04/01 07:40:27;;;;;;;5.10;4.13;;;10.40;99.90;;;;;;5043852;28;20424;-68
2023/04/01 07:43:15;;;;;;;3.53;3.23;;;10.40;99.90;;;;;;5053647;28;20409;-69
2023/04/01 07:45:43;;;;;;;4.53;3.27;;;10.50;99.90;;;;;;5054984;28;20980;-69
2023/04/01 07:48:43;;;;;;;6.30;3.83;;;10.50;99.90;;;;;;5055064;28;20417;-67
2023/04/01 07:51:12;;;;;;;3.90;3.50;;;10.60;99.90;;;;;;5055041;28;20445;-66
2023/04/01 07:53:50;;;;;;;7.43;4.43;;;10.60;99.90;;;;;;5055259;28;20402;-68
2023/04/01 07:56:56;;;;;;;5.93;3.47;;;10.50;99.90;;;;;;5054508;28;20527;-68
2023/04/01 07:59:30;;;;;;;4.33;2.83;;;10.40;99.90;;;;;;5054668;28;20405;-68
2023/04/01 08:02:14;;;;;;;4.20;2.80;;;10.30;99.90;;;;;;5055184;28;21014;-68
2023/04/01 08:04:58;;;;;;;5.00;2.90;;;10.30;99.90;;;;;;5054217;28;20410;-66
2023/04/01 08:07:33;;;;;;;3.90;3.50;;;10.40;99.90;;;;;;5048893;28;20834;-67
2023/04/01 08:10:10;;;;;;;3.10;2.23;;;10.50;99.90;;;;;;5052010;28;20412;-68
2023/04/01 08:13:05;;;;;;;2.63;2.23;;;10.40;99.90;;;;;;5054562;28;20489;-67
2023/04/01 08:15:42;;;;;;;2.03;1.57;;;10.10;99.90;;;;;;5054158;28;20424;-68
2023/04/01 08:18:18;;;;;;;3.20;2.37;;;10.00;99.90;;;;;;5054436;28;20405;-69
2023/04/01 08:21:00;;;;;;;3.00;1.53;;;10.10;99.90;;;;;;5053885;28;20565;-69
2023/04/01 08:23:33;;;;;;;2.60;2.10;;;10.10;99.90;;;;;;5054577;28;20409;-68
2023/04/01 08:26:27;;;;;;;2.40;2.20;;;10.10;99.90;;;;;;5055046;28;20456;-68
2023/04/01 08:29:14;;;;;;;2.27;2.07;;;10.00;99.90;;;;;;5051798;28;20412;-67
2023/04/01 08:31:45;;;;;;;2.23;2.03;;;9.90;99.90;;;;;;5053102;28;20426;-68
2023/04/01 08:34:26;;;;;;;3.80;2.90;;;9.90;99.90;;;;;;5054184;28;20405;-67
2023/04/01 08:37:00;;;;;;;3.80;2.37;;;9.80;99.90;;;;;;5053605;28;20854;-67
2023/04/01 08:39:36;;;;;;;5.07;3.40;;;9.70;99.90;;;;;;5046022;28;20721;-68
2023/04/01 08:42:11;;;;;;;4.67;4.23;;;9.60;99.90;;;;;;5053760;28;20507;-69
2023/04/01 08:45:18;;;;;;;7.87;4.47;;;9.70;99.90;;;;;;5053579;28;20851;-68
2023/04/01 08:47:56;;;;;;;6.70;4.47;;;9.50;99.90;;;;;;5037669;28;20423;-69
2023/04/01 08:50:54;;;;;;;7.13;4.90;;;9.50;99.90;;;;;;5053960;28;20401;-68
2023/04/01 08:53:47;;;;;;;9.43;7.00;;;9.50;99.90;;;;;;5053771;28;20409;-68
2023/04/01 08:56:33;;;;;;;9.47;7.60;;;9.60;99.90;;;;;;5053678;28;20500;-67
2023/04/01 08:59:13;;;;;;;9.57;6.57;;;9.50;99.90;;;;;;5052176;28;20817;-67
2023/04/01 09:02:00;;;;;;;11.20;7.40;;;9.60;99.90;;;;;;5053520;28;20845;-68
2023/04/01 09:04:25;;;;;;;10.53;7.10;;;9.70;99.90;;;;;;5050746;28;20936;-68
2023/04/01 09:07:22;;;;;;;10.50;7.90;;;9.70;99.90;;;;;;5053261;28;20413;-68
2023/04/01 09:09:51;;;;;;;10.40;7.07;;;9.90;99.90;;;;;;5053133;28;20541;-67
2023/04/01 09:13:04;;;;;;;9.53;7.00;;;9.90;99.90;;;;;;5053387;28;20432;-69
2023/04/01 09:15:38;;;;;;;7.30;5.47;;;9.90;99.90;;;;;;5036698;28;20470;-68
2023/04/01 09:18:23;;;;;;;7.30;6.40;;;9.80;99.90;;;;;;5052913;28;20411;-68
2023/04/01 09:21:22;;;;;;;8.70;6.57;;;9.80;99.90;;;;;;5053397;28;20450;-67
2023/04/01 09:23:57;;;;;;;11.40;8.40;;;9.80;99.90;;;;;;5053273;28;20417;-67
2023/04/01 09:26:35;;;;;;;9.03;7.10;;;9.90;99.90;;;;;;5052752;28;20463;-68
2023/04/01 09:29:12;;;;;;;13.73;8.37;;;9.80;99.90;;;;;;5052910;28;20748;-68
2023/04/01 09:32:04;;;;;;;9.60;7.57;;;9.80;99.90;;;;;;5052311;28;20428;-68
2023/04/01 09:34:50;;;;;;;9.97;7.80;;;9.70;99.90;;;;;;5045886;28;20401;-67
2023/04/01 09:37:25;;;;;;;9.87;8.13;;;9.60;99.90;;;;;;5053570;28;20394;-68
2023/04/01 09:40:37;;;;;;;9.50;7.70;;;9.50;99.90;;;;;;5054135;28;20403;-68
2023/04/01 09:43:16;;;;;;;9.80;7.47;;;9.60;99.90;;;;;;5050205;28;20401;-68
2023/04/01 09:46:26;;;;;;;10.57;7.73;;;9.70;99.90;;;;;;5047009;28;20593;-68
2023/04/01 09:49:17;;;;;;;10.50;7.33;;;9.80;99.90;;;;;;5042819;28;20417;-68
2023/04/01 09:51:51;;;;;;;8.97;7.73;;;9.60;99.90;;;;;;5047753;28;20509;-68
2023/04/01 09:54:43;;;;;;;11.70;7.17;;;9.50;99.90;;;;;;5056412;28;20419;-68
2023/04/01 09:57:44;;;;;;;9.90;7.93;;;9.50;99.90;;;;;;5058225;28;20409;-68
2023/04/01 10:00:38;;;;;;;8.57;7.40;;;9.40;99.90;;;;;;5064036;28;20410;-68
2023/04/01 10:03:37;;;;;;;8.47;7.20;;;9.30;99.90;;;;;;5063002;28;20414;-68
2023/04/01 10:06:20;;;;;;;8.57;6.20;;;9.20;99.90;;;;;;5052447;28;20486;-68
2023/04/01 10:09:11;;;;;;;12.13;7.77;;;9.20;99.90;;;;;;5052565;28;20426;-69
2023/04/01 10:12:00;;;;;;;7.83;6.63;;;9.30;99.90;;;;;;5046169;28;20437;-68
2023/04/01 10:14:44;;;;;;;7.90;7.10;;;9.10;99.90;;;;;;5048522;28;20406;-68
2023/04/01 10:17:34;;;;;;;10.70;7.80;;;9.10;99.90;;;;;;5052555;28;20407;-68
2023/04/01 10:20:14;;;;;;;7.83;6.87;;;9.00;99.90;;;;;;5052321;28;20493;-68
2023/04/01 10:23:18;;;;;;;10.30;6.70;;;9.00;99.90;;;;;;5052548;28;20440;-68
2023/04/01 10:26:05;;;;;;;10.10;7.60;;;9.00;99.90;;;;;;5052053;28;20965;-68
2023/04/01 10:28:49;;;;;;;9.30;7.50;;;8.90;99.90;;;;;;5051667;28;20411;-68
2023/04/01 10:32:00;;;;;;;9.47;7.73;;;8.90;99.90;;;;;;5052341;28;20775;-68
2023/04/01 10:34:52;;;;;;;10.20;7.93;;;8.80;99.90;;;;;;5020912;28;20413;-67
2023/04/01 10:37:51;;;;;;;9.07;7.17;;;8.90;99.90;;;;;;5051128;28;20405;-67
2023/04/01 10:40:32;;;;;;;10.93;8.10;;;8.80;99.90;;;;;;5051821;28;20408;-67
2023/04/01 10:43:19;;;;;;;10.57;8.20;;;8.80;99.90;;;;;;5051228;28;20511;-67
2023/04/01 10:46:07;;;;;;;12.23;9.60;;;8.70;99.90;;;;;;5051552;28;20465;-67
2023/04/01 10:48:57;;;;;;;12.70;8.90;;;8.80;99.90;;;;;;5048261;28;20407;-67
2023/04/01 10:51:56;;;;;;;11.40;8.73;;;8.90;99.90;;;;;;5071900;22;20483;-74
2023/04/01 10:54:49;;;;;;;9.23;8.03;;;8.80;99.90;;;;;;5051050;28;20484;-75
2023/04/01 10:57:15;;;;;;;12.93;9.20;;;8.80;99.90;;;;;;5050795;28;20773;-75
2023/04/01 10:59:59;;;;;;;9.47;7.67;;;8.80;99.90;;;;;;5051263;28;20405;-74
2023/04/01 11:02:49;;;;;;;9.47;7.60;;;8.70;99.90;;;;;;5057605;28;20663;-73
2023/04/01 11:05:21;;;;;;;11.00;8.60;;;8.70;99.90;;;;;;5050541;28;20455;-75
2023/04/01 11:08:01;;;;;;;11.50;8.63;;;8.60;99.90;;;;;;5050607;28;20413;-76
2023/04/01 11:10:45;;;;;;;11.77;9.10;;;8.60;99.90;;;;;;5050142;28;20461;-75
2023/04/01 11:13:32;;;;;;;9.03;7.40;;;8.70;99.90;;;;;;5050801;28;20433;-74
2023/04/01 11:16:28;;;;;;;8.43;7.40;;;8.70;99.90;;;;;;5047332;28;20409;-75
2023/04/01 11:19:21;;;;;;;10.87;8.90;;;8.60;99.90;;;;;;5049443;28;20418;-75
2023/04/01 11:22:05;;;;;;;9.03;8.13;;;8.60;99.90;;;;;;5044934;28;20433;-75
2023/04/01 11:24:51;;;;;;;13.53;9.57;;;8.60;99.90;;;;;;5043392;28;20470;-75
2023/04/01 11:27:25;;;;;;;10.93;9.00;;;8.70;99.90;;;;;;5042726;28;20423;-74
2023/04/01 11:30:05;;;;;;;13.70;9.50;;;8.60;99.90;;;;;;5050847;28;20412;-74
2023/04/01 11:32:39;;;;;;;11.60;9.50;;;8.70;99.90;;;;;;5048983;28;20437;-74
2023/04/01 11:35:25;;;;;;;10.30;9.03;;;8.60;99.90;;;;;;5050686;28;20562;-74
2023/04/01 11:38:30;;;;;;;9.27;7.27;;;8.60;99.90;;;;;;5046231;28;20420;-74
2023/04/01 11:41:14;;;;;;;9.80;7.90;;;8.60;99.90;;;;;;5046569;28;20473;-76
2023/04/01 11:44:08;;;;;;;13.80;9.43;;;8.50;99.90;;;;;;5044219;28;20419;-75
2023/04/01 11:46:49;;;;;;;10.40;8.60;;;8.60;99.90;;;;;;5043350;28;20455;-76
2023/04/01 11:49:40;;;;;;;8.97;6.60;;;8.60;99.90;;;;;;5050721;28;20409;-74
2023/04/01 11:52:08;;;;;;;12.00;9.30;;;8.50;99.90;;;;;;5048812;28;20531;-75
2023/04/01 11:55:01;;;;;;;14.50;10.30;;;8.60;99.90;;;;;;5052590;28;20567;-74
2023/04/01 11:57:33;;;;;;;12.43;9.77;;;8.50;99.90;;;;;;5047910;28;20890;-74
2023/04/01 12:00:18;;;;;;;12.70;10.00;;;8.40;99.90;;;;;;5044462;28;20406;-75
2023/04/01 12:03:11;;;;;;;11.90;9.63;;;8.30;99.90;;;;;;5048849;28;20479;-75
2023/04/01 12:06:01;;;;;;;11.70;9.40;;;8.20;99.90;;;;;;5043775;28;20478;-76
2023/04/01 12:08:42;;;;;;;13.93;10.50;;;8.10;99.90;;;;;;5053902;28;20401;-77
2023/04/01 12:11:25;;;;;;;11.20;9.80;;;8.10;99.90;;;;;;5055789;28;20502;-75
2023/04/01 12:14:25;;;;;;;12.03;9.40;;;8.00;99.90;;;;;;5054370;28;20406;-76
2023/04/01 12:17:27;;;;;;;11.40;9.07;;;8.20;99.90;;;;;;5048654;28;20423;-76
2023/04/01 12:20:05;;;;;;;7.97;7.13;;;8.10;99.90;;;;;;5049524;28;20428;-75
2023/04/01 12:23:06;;;;;;;11.33;9.40;;;8.10;99.90;;;;;;5047259;28;20428;-76
2023/04/01 12:25:51;;;;;;;11.67;8.40;;;8.10;99.90;;;;;;5055406;28;20473;-74
2023/04/01 12:28:41;;;;;;;8.13;7.30;;;8.20;99.90;;;;;;5054785;28;20421;-76
2023/04/01 12:31:41;;;;;;;12.47;10.30;;;8.20;99.90;;;;;;5054656;28;20425;-76
2023/04/01 12:34:39;;;;;;;8.80;7.90;;;8.30;99.90;;;;;;5053366;28;20754;-75
2023/04/01 12:37:29;;;;;;;9.87;8.33;;;8.10;99.90;;;;;;5065322;28;20407;-76
2023/04/01 12:40:23;;;;;;;12.83;10.40;;;8.00;99.90;;;;;;5071458;28;20406;-75
2023/04/01 12:42:51;;;;;;;14.77;11.03;;;8.10;99.90;;;;;;5066716;28;20434;-75
2023/04/01 12:45:30;;;;;;;12.67;9.83;;;8.00;99.90;;;;;;5070611;28;20453;-76
2023/04/01 12:48:05;;;;;;;12.67;9.70;;;8.00;99.90;;;;;;5068430;28;21104;-75
2023/04/01 12:51:02;;;;;;;12.73;10.33;;;7.90;99.90;;;;;;5055760;28;20406;-76
2023/04/01 12:54:01;;;;;;;12.60;11.03;;;7.80;99.90;;;;;;5051203;28;20856;-75
2023/04/01 12:56:57;;;;;;;14.90;10.57;;;7.80;99.90;;;;;;5047742;28;20420;-75
2023/04/01 12:59:35;;;;;;;14.20;10.90;;;7.80;99.90;;;;;;5052186;28;20859;-75
2023/04/01 13:02:08;;;;;;;15.30;10.90;;;7.70;99.90;;;;;;5050035;28;20486;-76
2023/04/01 13:04:39;;;;;;;15.20;11.83;;;7.80;99.90;;;;;;5051610;28;20970;-76
2023/04/01 13:07:26;;;;;;;13.70;11.13;;;7.70;99.90;;;;;;5053244;28;20425;-76
2023/04/01 13:10:20;;;;;;;12.70;10.87;;;7.70;99.90;;;;;;5054359;28;20423;-75
2023/04/01 13:13:08;;;;;;;17.97;10.60;;;7.60;99.90;;;;;;5048153;28;20453;-76
2023/04/01 13:15:41;;;;;;;14.73;11.17;;;7.60;99.90;;;;;;5046684;28;20459;-76
2023/04/01 13:18:34;;;;;;;12.70;10.27;;;7.60;99.90;;;;;;5053213;28;20418;-74
2023/04/01 13:21:21;;;;;;;13.13;10.43;;;7.60;99.90;;;;;;5053358;28;20410;-75
2023/04/01 13:24:05;;;;;;;14.80;11.47;;;7.70;99.90;;;;;;5052505;28;20407;-76
2023/04/01 13:26:50;;;;;;;16.30;11.93;;;7.70;99.90;;;;;;5047435;28;20486;-75
2023/04/01 13:29:15;;;;;;;14.13;10.00;;;7.70;99.90;;;;;;5052356;28;20867;-74
2023/04/01 13:31:48;;;;;;;14.33;10.67;;;7.70;99.90;;;;;;5052434;28;20431;-75
2023/04/01 13:34:44;;;;;;;15.10;11.60;;;7.60;99.90;;;;;;5052565;28;20171;-74
2023/04/01 13:37:46;;;;;;;12.33;9.60;;;7.60;99.90;;;;;;5052073;28;20451;-75
2023/04/01 13:40:15;;;;;;;13.17;10.57;;;7.70;99.90;;;;;;5051975;28;20410;-74
2023/04/01 13:42:47;;;;;;;11.73;9.13;;;7.60;99.90;;;;;;5052222;28;20446;-75
2023/04/01 13:45:23;;;;;;;16.77;10.70;;;7.60;99.90;;;;;;5052028;28;20500;-76